sensor_id;sensor_type;location;lat;lon;timestamp;temperature;humidity
59015;DHT22;44799;53.382;14.666;2022-08-19T00:00:24;21.70;99.90
59015;DHT22;44799;53.382;14.666;2022-08-19T00:02:50;21.60;99.90
59015;DHT22;44799;53.382;14.666;2022-08-19T00:05:17;21.70;99.90
59015;DHT22;44799;53.382;14.666;2022-08-19T00:07:44;21.60;99.90
59015;DHT22;44799;53.382;14.666;2022-08-19T00:10:13;21.60;99.90
59015;DHT22;44799;53.382;14.666;2022-08-19T00:12:40;21.60;99.90
59015;DHT22;44799;53.382;14.666;2022-08-19T00:15:08;21.60;99.90
59015;DHT22;44799;53.382;14.666;2022-08-19T00:17:41;21.60;99.90
59015;DHT22;44799;53.382;14.666;2022-08-19T00:20:09;21.50;99.90
59015;DHT22;44799;53.382;14.666;2022-08-19T00:22:37;23.30;99.90
59015;DHT22;44799;53.382;14.666;2022-08-19T00:25:04;22.30;99.90
59015;DHT22;44799;53.382;14.666;2022-08-19T00:27:30;21.50;99.90
59015;DHT22;44799;53.382;14.666;2022-08-19T00:29:56;21.50;99.90
59015;DHT22;44799;53.382;14.666;2022-08-19T00:32:22;21.50;99.90
59015;DHT22;44799;53.382;14.666;2022-08-19T00:34:48;21.60;99.90
59015;DHT22;44799;53.382;14.666;2022-08-19T00:37:14;20.50;99.90
59015;DHT22;44799;53.382;14.666;2022-08-19T00:39:39;20.50;99.90
59015;DHT22;44799;53.382;14.666;2022-08-19T00:42:05;21.50;99.90
59015;DHT22;44799;53.382;14.666;2022-08-19T00:44:31;21.50;99.90
59015;DHT22;44799;53.382;14.666;2022-08-19T00:46:58;21.60;99.90
59015;DHT22;44799;53.382;14.666;2022-08-19T00:49:49;21.70;99.90
59015;DHT22;44799;53.382;14.666;2022-08-19T00:52:18;21.70;99.90
59015;DHT22;44799;53.382;14.666;2022-08-19T00:54:46;23.20;99.90
59015;DHT22;44799;53.382;14.666;2022-08-19T00:57:15;21.70;99.90
59015;DHT22;44799;53.382;14.666;2022-08-19T00:59:44;21.70;99.90
59015;DHT22;44799;53.382;14.666;2022-08-19T01:02:11;21.70;99.90
59015;DHT22;44799;53.382;14.666;2022-08-19T01:04:37;21.80;99.90
59015;DHT22;44799;53.382;14.666;2022-08-19T01:07:03;21.80;99.90
59015;DHT22;44799;53.382;14.666;2022-08-19T01:09:30;21.10;99.90
59015;DHT22;44799;53.382;14.666;2022-08-19T01:11:56;21.90;99.90
59015;DHT22;44799;53.382;14.666;2022-08-19T01:14:22;21.90;99.90
59015;DHT22;44799;53.382;14.666;2022-08-19T01:16:49;21.90;99.90
59015;DHT22;44799;53.382;14.666;2022-08-19T01:19:31;21.10;99.90
59015;DHT22;44799;53.382;14.666;2022-08-19T01:24:28;22.20;99.90
59015;DHT22;44799;53.382;14.666;2022-08-19T01:26:54;21.90;99.90
59015;DHT22;44799;53.382;14.666;2022-08-19T01:29:20;21.90;99.90
59015;DHT22;44799;53.382;14.666;2022-08-19T01:31:46;23.80;99.90
59015;DHT22;44799;53.382;14.666;2022-08-19T01:34:12;21.90;99.90
59015;DHT22;44799;53.382;14.666;2022-08-19T01:36:43;21.90;99.90
59015;DHT22;44799;53.382;14.666;2022-08-19T01:39:23;21.90;99.90
59015;DHT22;44799;53.382;14.666;2022-08-19T01:41:50;21.90;99.90
59015;DHT22;44799;53.382;14.666;2022-08-19T01:44:20;21.90;99.90
59015;DHT22;44799;53.382;14.666;2022-08-19T01:46:50;22.10;99.90
59015;DHT22;44799;53.382;14.666;2022-08-19T01:49:18;21.90;99.90
59015;DHT22;44799;53.382;14.666;2022-08-19T01:51:45;21.90;99.90
59015;DHT22;44799;53.382;14.666;2022-08-19T01:54:13;21.60;99.90
59015;DHT22;44799;53.382;14.666;2022-08-19T01:56:39;21.90;99.90
59015;DHT22;44799;53.382;14.666;2022-08-19T01:59:10;21.90;99.90
59015;DHT22;44799;53.382;14.666;2022-08-19T02:01:37;22.00;99.90
59015;DHT22;44799;53.382;14.666;2022-08-19T02:04:03;22.00;99.90
59015;DHT22;44799;53.382;14.666;2022-08-19T02:06:31;20.90;99.90
59015;DHT22;44799;53.382;14.666;2022-08-19T02:08:58;22.00;99.90
59015;DHT22;44799;53.382;14.666;2022-08-19T02:11:26;22.00;99.90
59015;DHT22;44799;53.382;14.666;2022-08-19T02:13:53;22.00;99.90
59015;DHT22;44799;53.382;14.666;2022-08-19T02:16:19;22.00;99.90
59015;DHT22;44799;53.382;14.666;2022-08-19T02:18:46;22.00;99.90
59015;DHT22;44799;53.382;14.666;2022-08-19T02:21:15;22.00;99.90
59015;DHT22;44799;53.382;14.666;2022-08-19T02:23:42;22.00;99.90
59015;DHT22;44799;53.382;14.666;2022-08-19T02:26:08;22.10;99.90
59015;DHT22;44799;53.382;14.666;2022-08-19T02:28:34;21.40;99.90
59015;DHT22;44799;53.382;14.666;2022-08-19T02:31:00;22.10;99.90
59015;DHT22;44799;53.382;14.666;2022-08-19T02:33:28;22.00;99.90
59015;DHT22;44799;53.382;14.666;2022-08-19T02:35:54;22.00;99.90
59015;DHT22;44799;53.382;14.666;2022-08-19T02:38:20;21.90;99.90
59015;DHT22;44799;53.382;14.666;2022-08-19T02:41:16;21.30;99.90
59015;DHT22;44799;53.382;14.666;2022-08-19T02:43:39;21.80;99.90
59015;DHT22;44799;53.382;14.666;2022-08-19T02:46:19;21.80;99.90
59015;DHT22;44799;53.382;14.666;2022-08-19T02:48:51;21.80;99.90
59015;DHT22;44799;53.382;14.666;2022-08-19T02:51:24;21.80;99.90
59015;DHT22;44799;53.382;14.666;2022-08-19T02:53:50;21.80;99.90
59015;DHT22;44799;53.382;14.666;2022-08-19T02:56:16;21.80;99.90
59015;DHT22;44799;53.382;14.666;2022-08-19T02:58:43;21.80;99.90
59015;DHT22;44799;53.382;14.666;2022-08-19T03:01:09;20.70;99.90
59015;DHT22;44799;53.382;14.666;2022-08-19T03:03:36;21.70;99.90
59015;DHT22;44799;53.382;14.666;2022-08-19T03:06:11;21.40;99.90
59015;DHT22;44799;53.382;14.666;2022-08-19T03:08:39;22.40;99.90
59015;DHT22;44799;53.382;14.666;2022-08-19T03:11:06;21.70;99.90
59015;DHT22;44799;53.382;14.666;2022-08-19T03:13:32;21.90;99.90
59015;DHT22;44799;53.382;14.666;2022-08-19T03:15:58;21.60;99.90
59015;DHT22;44799;53.382;14.666;2022-08-19T03:18:24;21.60;99.90
59015;DHT22;44799;53.382;14.666;2022-08-19T03:20:52;21.60;99.90
59015;DHT22;44799;53.382;14.666;2022-08-19T03:23:20;21.60;99.90
59015;DHT22;44799;53.382;14.666;2022-08-19T03:25:48;21.60;99.90
59015;DHT22;44799;53.382;14.666;2022-08-19T03:28:15;21.60;99.90
59015;DHT22;44799;53.382;14.666;2022-08-19T03:30:42;21.60;99.90
59015;DHT22;44799;53.382;14.666;2022-08-19T03:33:10;21.60;99.90
59015;DHT22;44799;53.382;14.666;2022-08-19T03:35:37;21.50;99.90
59015;DHT22;44799;53.382;14.666;2022-08-19T03:38:05;22.60;99.90
59015;DHT22;44799;53.382;14.666;2022-08-19T03:40:32;21.50;99.90
59015;DHT22;44799;53.382;14.666;2022-08-19T03:43:00;21.50;99.90
59015;DHT22;44799;53.382;14.666;2022-08-19T03:45:26;21.50;99.90
59015;DHT22;44799;53.382;14.666;2022-08-19T03:47:53;21.50;99.90
59015;DHT22;44799;53.382;14.666;2022-08-19T03:50:19;21.50;99.90
59015;DHT22;44799;53.382;14.666;2022-08-19T03:52:50;21.50;99.90
59015;DHT22;44799;53.382;14.666;2022-08-19T03:55:17;21.50;99.90
59015;DHT22;44799;53.382;14.666;2022-08-19T03:57:43;21.50;99.90
59015;DHT22;44799;53.382;14.666;2022-08-19T04:00:12;21.50;99.90
59015;DHT22;44799;53.382;14.666;2022-08-19T04:02:38;21.50;99.90
59015;DHT22;44799;53.382;14.666;2022-08-19T04:05:04;21.50;99.90
59015;DHT22;44799;53.382;14.666;2022-08-19T04:07:30;21.50;99.90
59015;DHT22;44799;53.382;14.666;2022-08-19T04:09:56;21.40;99.90
59015;DHT22;44799;53.382;14.666;2022-08-19T04:12:22;21.40;99.90
59015;DHT22;44799;53.382;14.666;2022-08-19T04:14:47;21.30;99.90
59015;DHT22;44799;53.382;14.666;2022-08-19T04:17:13;21.20;99.90
59015;DHT22;44799;53.382;14.666;2022-08-19T04:19:40;21.10;99.90
59015;DHT22;44799;53.382;14.666;2022-08-19T04:22:08;19.60;99.90
59015;DHT22;44799;53.382;14.666;2022-08-19T04:24:35;21.00;99.90
59015;DHT22;44799;53.382;14.666;2022-08-19T04:27:02;21.00;99.90
59015;DHT22;44799;53.382;14.666;2022-08-19T04:29:28;21.00;99.90
59015;DHT22;44799;53.382;14.666;2022-08-19T04:31:56;20.90;99.90
59015;DHT22;44799;53.382;14.666;2022-08-19T04:34:27;20.90;99.90
59015;DHT22;44799;53.382;14.666;2022-08-19T04:36:55;20.80;99.90
59015;DHT22;44799;53.382;14.666;2022-08-19T04:39:28;20.80;99.90
59015;DHT22;44799;53.382;14.666;2022-08-19T04:42:14;20.80;99.90
59015;DHT22;44799;53.382;14.666;2022-08-19T04:44:59;20.80;99.90
59015;DHT22;44799;53.382;14.666;2022-08-19T04:47:25;20.90;99.90
59015;DHT22;44799;53.382;14.666;2022-08-19T04:49:51;20.80;99.90
59015;DHT22;44799;53.382;14.666;2022-08-19T04:52:17;20.90;99.90
59015;DHT22;44799;53.382;14.666;2022-08-19T04:54:43;20.90;99.90
59015;DHT22;44799;53.382;14.666;2022-08-19T04:57:09;19.80;99.90
59015;DHT22;44799;53.382;14.666;2022-08-19T04:59:37;20.90;99.90
59015;DHT22;44799;53.382;14.666;2022-08-19T05:02:03;21.00;99.90
59015;DHT22;44799;53.382;14.666;2022-08-19T05:04:29;21.00;99.90
59015;DHT22;44799;53.382;14.666;2022-08-19T05:06:58;21.00;99.90
59015;DHT22;44799;53.382;14.666;2022-08-19T05:09:24;21.10;99.90
59015;DHT22;44799;53.382;14.666;2022-08-19T05:11:50;21.90;99.90
59015;DHT22;44799;53.382;14.666;2022-08-19T05:14:17;21.00;99.90
59015;DHT22;44799;53.382;14.666;2022-08-19T05:16:45;21.10;99.90
59015;DHT22;44799;53.382;14.666;2022-08-19T05:19:10;21.10;99.90
59015;DHT22;44799;53.382;14.666;2022-08-19T05:21:55;21.60;99.90
59015;DHT22;44799;53.382;14.666;2022-08-19T05:24:39;21.10;99.90
59015;DHT22;44799;53.382;14.666;2022-08-19T05:27:05;21.30;99.90
59015;DHT22;44799;53.382;14.666;2022-08-19T05:29:32;21.30;99.90
59015;DHT22;44799;53.382;14.666;2022-08-19T05:32:01;20.90;99.90
59015;DHT22;44799;53.382;14.666;2022-08-19T05:34:27;21.40;99.90
59015;DHT22;44799;53.382;14.666;2022-08-19T05:36:59;21.40;99.90
59015;DHT22;44799;53.382;14.666;2022-08-19T05:39:31;21.30;99.90
59015;DHT22;44799;53.382;14.666;2022-08-19T05:42:00;21.40;99.90
59015;DHT22;44799;53.382;14.666;2022-08-19T05:44:29;21.40;99.90
59015;DHT22;44799;53.382;14.666;2022-08-19T05:47:00;21.50;99.90
59015;DHT22;44799;53.382;14.666;2022-08-19T05:49:28;22.20;99.90
59015;DHT22;44799;53.382;14.666;2022-08-19T05:51:54;21.50;99.90
59015;DHT22;44799;53.382;14.666;2022-08-19T05:54:21;21.60;99.90
59015;DHT22;44799;53.382;14.666;2022-08-19T05:56:49;21.70;99.90
59015;DHT22;44799;53.382;14.666;2022-08-19T05:59:16;21.50;99.90
59015;DHT22;44799;53.382;14.666;2022-08-19T06:01:44;21.70;99.90
59015;DHT22;44799;53.382;14.666;2022-08-19T06:04:12;21.70;99.90
59015;DHT22;44799;53.382;14.666;2022-08-19T06:06:39;21.70;99.90
59015;DHT22;44799;53.382;14.666;2022-08-19T06:09:07;21.70;99.90
59015;DHT22;44799;53.382;14.666;2022-08-19T06:11:47;21.80;99.90
59015;DHT22;44799;53.382;14.666;2022-08-19T06:14:16;21.90;99.90
59015;DHT22;44799;53.382;14.666;2022-08-19T06:16:44;22.00;99.90
59015;DHT22;44799;53.382;14.666;2022-08-19T06:19:13;22.10;99.90
59015;DHT22;44799;53.382;14.666;2022-08-19T06:21:42;22.10;99.90
59015;DHT22;44799;53.382;14.666;2022-08-19T06:24:10;22.20;99.90
59015;DHT22;44799;53.382;14.666;2022-08-19T06:26:38;21.20;99.90
59015;DHT22;44799;53.382;14.666;2022-08-19T06:29:07;22.10;99.90
59015;DHT22;44799;53.382;14.666;2022-08-19T06:31:34;22.20;99.90
59015;DHT22;44799;53.382;14.666;2022-08-19T06:34:02;22.20;99.90
59015;DHT22;44799;53.382;14.666;2022-08-19T06:36:43;22.20;99.90
59015;DHT22;44799;53.382;14.666;2022-08-19T06:39:15;22.30;99.90
59015;DHT22;44799;53.382;14.666;2022-08-19T06:41:43;22.30;99.90
59015;DHT22;44799;53.382;14.666;2022-08-19T06:44:09;22.30;99.90
59015;DHT22;44799;53.382;14.666;2022-08-19T06:46:37;22.30;99.90
59015;DHT22;44799;53.382;14.666;2022-08-19T06:49:03;22.30;99.90
59015;DHT22;44799;53.382;14.666;2022-08-19T06:51:29;22.30;99.90
59015;DHT22;44799;53.382;14.666;2022-08-19T06:53:57;22.30;99.90
59015;DHT22;44799;53.382;14.666;2022-08-19T06:56:28;22.30;99.90
59015;DHT22;44799;53.382;14.666;2022-08-19T06:59:03;22.30;99.90
59015;DHT22;44799;53.382;14.666;2022-08-19T07:01:37;22.20;99.90
59015;DHT22;44799;53.382;14.666;2022-08-19T07:04:06;21.90;99.90
59015;DHT22;44799;53.382;14.666;2022-08-19T07:06:32;22.20;99.90
59015;DHT22;44799;53.382;14.666;2022-08-19T07:08:58;21.90;99.90
59015;DHT22;44799;53.382;14.666;2022-08-19T07:11:24;22.20;99.90
59015;DHT22;44799;53.382;14.666;2022-08-19T07:13:50;22.30;99.90
59015;DHT22;44799;53.382;14.666;2022-08-19T07:16:18;22.20;99.90
59015;DHT22;44799;53.382;14.666;2022-08-19T07:18:50;23.30;99.90
59015;DHT22;44799;53.382;14.666;2022-08-19T07:21:20;22.20;99.90
59015;DHT22;44799;53.382;14.666;2022-08-19T07:23:47;20.40;99.90
59015;DHT22;44799;53.382;14.666;2022-08-19T07:26:22;22.20;99.90
59015;DHT22;44799;53.382;14.666;2022-08-19T07:28:49;22.10;99.90
59015;DHT22;44799;53.382;14.666;2022-08-19T07:31:18;22.10;99.90
59015;DHT22;44799;53.382;14.666;2022-08-19T07:33:46;22.20;99.90
59015;DHT22;44799;53.382;14.666;2022-08-19T07:36:14;22.20;99.90
59015;DHT22;44799;53.382;14.666;2022-08-19T07:38:44;22.00;99.90
59015;DHT22;44799;53.382;14.666;2022-08-19T07:41:13;22.20;99.90
59015;DHT22;44799;53.382;14.666;2022-08-19T07:43:41;22.20;99.90
59015;DHT22;44799;53.382;14.666;2022-08-19T07:46:09;22.20;99.90
59015;DHT22;44799;53.382;14.666;2022-08-19T07:48:35;22.30;99.90
59015;DHT22;44799;53.382;14.666;2022-08-19T07:51:04;22.30;99.90
59015;DHT22;44799;53.382;14.666;2022-08-19T07:53:31;22.30;99.90
59015;DHT22;44799;53.382;14.666;2022-08-19T07:56:01;22.40;99.90
59015;DHT22;44799;53.382;14.666;2022-08-19T07:58:29;22.40;99.90
59015;DHT22;44799;53.382;14.666;2022-08-19T08:00:55;22.40;99.90
59015;DHT22;44799;53.382;14.666;2022-08-19T08:03:22;22.50;99.90
59015;DHT22;44799;53.382;14.666;2022-08-19T08:06:08;22.50;99.90
59015;DHT22;44799;53.382;14.666;2022-08-19T08:08:54;22.40;99.90
59015;DHT22;44799;53.382;14.666;2022-08-19T08:11:57;22.40;99.90
59015;DHT22;44799;53.382;14.666;2022-08-19T08:14:31;22.30;99.90
59015;DHT22;44799;53.382;14.666;2022-08-19T08:16:58;22.20;99.90
59015;DHT22;44799;53.382;14.666;2022-08-19T08:19:25;22.20;99.90
59015;DHT22;44799;53.382;14.666;2022-08-19T08:21:54;22.20;99.90
59015;DHT22;44799;53.382;14.666;2022-08-19T08:24:20;22.30;99.90
59015;DHT22;44799;53.382;14.666;2022-08-19T08:26:46;23.20;99.90
59015;DHT22;44799;53.382;14.666;2022-08-19T08:29:13;22.30;99.90
59015;DHT22;44799;53.382;14.666;2022-08-19T08:31:42;22.30;99.90
59015;DHT22;44799;53.382;14.666;2022-08-19T08:34:09;22.30;99.90
59015;DHT22;44799;53.382;14.666;2022-08-19T08:36:37;22.60;99.90
59015;DHT22;44799;53.382;14.666;2022-08-19T08:39:09;22.50;99.90
59015;DHT22;44799;53.382;14.666;2022-08-19T08:45:03;22.60;99.90
59015;DHT22;44799;53.382;14.666;2022-08-19T08:47:38;22.60;99.90
59015;DHT22;44799;53.382;14.666;2022-08-19T08:50:13;22.60;99.90
59015;DHT22;44799;53.382;14.666;2022-08-19T08:52:45;22.60;99.90
59015;DHT22;44799;53.382;14.666;2022-08-19T08:55:15;22.40;99.90
59015;DHT22;44799;53.382;14.666;2022-08-19T09:00:28;22.90;99.90
59015;DHT22;44799;53.382;14.666;2022-08-19T09:02:57;23.10;99.90
59015;DHT22;44799;53.382;14.666;2022-08-19T09:08:18;23.20;99.90
59015;DHT22;44799;53.382;14.666;2022-08-19T09:10:56;23.20;99.90
59015;DHT22;44799;53.382;14.666;2022-08-19T09:13:28;23.20;99.90
59015;DHT22;44799;53.382;14.666;2022-08-19T09:16:19;23.10;99.90
59015;DHT22;44799;53.382;14.666;2022-08-19T09:18:51;23.00;99.90
59015;DHT22;44799;53.382;14.666;2022-08-19T09:21:20;22.90;99.90
59015;DHT22;44799;53.382;14.666;2022-08-19T09:23:48;22.90;99.90
59015;DHT22;44799;53.382;14.666;2022-08-19T09:26:19;22.50;99.90
59015;DHT22;44799;53.382;14.666;2022-08-19T09:28:46;23.10;99.90
59015;DHT22;44799;53.382;14.666;2022-08-19T09:31:25;23.20;99.90
59015;DHT22;44799;53.382;14.666;2022-08-19T09:33:52;23.30;99.90
59015;DHT22;44799;53.382;14.666;2022-08-19T09:36:19;23.70;99.90
59015;DHT22;44799;53.382;14.666;2022-08-19T09:38:48;23.50;99.90
59015;DHT22;44799;53.382;14.666;2022-08-19T09:41:16;23.60;99.90
59015;DHT22;44799;53.382;14.666;2022-08-19T09:43:45;23.70;99.90
59015;DHT22;44799;53.382;14.666;2022-08-19T09:46:12;23.80;99.90
59015;DHT22;44799;53.382;14.666;2022-08-19T09:48:39;25.60;99.90
59015;DHT22;44799;53.382;14.666;2022-08-19T09:51:09;22.90;99.90
59015;DHT22;44799;53.382;14.666;2022-08-19T09:53:36;23.80;99.90
59015;DHT22;44799;53.382;14.666;2022-08-19T09:56:05;22.70;99.90
59015;DHT22;44799;53.382;14.666;2022-08-19T09:58:32;23.70;99.90
59015;DHT22;44799;53.382;14.666;2022-08-19T10:00:59;23.70;99.90
59015;DHT22;44799;53.382;14.666;2022-08-19T10:03:27;25.90;99.90
59015;DHT22;44799;53.382;14.666;2022-08-19T10:05:53;23.90;99.90
59015;DHT22;44799;53.382;14.666;2022-08-19T10:08:23;24.00;99.90
59015;DHT22;44799;53.382;14.666;2022-08-19T10:10:49;24.00;99.90
59015;DHT22;44799;53.382;14.666;2022-08-19T10:13:18;24.20;99.90
59015;DHT22;44799;53.382;14.666;2022-08-19T10:15:48;26.00;99.90
59015;DHT22;44799;53.382;14.666;2022-08-19T10:18:17;24.40;99.90
59015;DHT22;44799;53.382;14.666;2022-08-19T10:20:44;24.40;99.90
59015;DHT22;44799;53.382;14.666;2022-08-19T10:23:11;24.40;99.90
59015;DHT22;44799;53.382;14.666;2022-08-19T10:25:38;23.50;99.90
59015;DHT22;44799;53.382;14.666;2022-08-19T10:28:04;24.20;99.90
59015;DHT22;44799;53.382;14.666;2022-08-19T10:30:31;24.20;99.90
59015;DHT22;44799;53.382;14.666;2022-08-19T10:32:57;25.70;99.90
59015;DHT22;44799;53.382;14.666;2022-08-19T10:35:23;24.20;99.90
59015;DHT22;44799;53.382;14.666;2022-08-19T10:37:53;24.10;99.90
59015;DHT22;44799;53.382;14.666;2022-08-19T10:40:19;24.10;99.90
59015;DHT22;44799;53.382;14.666;2022-08-19T10:42:45;23.90;99.90
59015;DHT22;44799;53.382;14.666;2022-08-19T10:45:11;23.80;99.90
59015;DHT22;44799;53.382;14.666;2022-08-19T10:47:37;23.80;99.90
59015;DHT22;44799;53.382;14.666;2022-08-19T10:50:03;23.30;99.90
59015;DHT22;44799;53.382;14.666;2022-08-19T10:52:49;22.70;99.90
59015;DHT22;44799;53.382;14.666;2022-08-19T10:55:20;23.70;99.90
59015;DHT22;44799;53.382;14.666;2022-08-19T10:58:13;23.70;99.90
59015;DHT22;44799;53.382;14.666;2022-08-19T11:00:40;23.80;99.90
59015;DHT22;44799;53.382;14.666;2022-08-19T11:03:07;23.80;99.90
59015;DHT22;44799;53.382;14.666;2022-08-19T11:05:33;23.80;99.90
59015;DHT22;44799;53.382;14.666;2022-08-19T11:07:59;23.80;99.90
59015;DHT22;44799;53.382;14.666;2022-08-19T11:10:25;23.90;99.90
59015;DHT22;44799;53.382;14.666;2022-08-19T11:12:51;24.00;99.90
59015;DHT22;44799;53.382;14.666;2022-08-19T11:15:20;23.10;99.90
59015;DHT22;44799;53.382;14.666;2022-08-19T11:17:46;24.10;99.90
59015;DHT22;44799;53.382;14.666;2022-08-19T11:20:13;24.10;99.90
59015;DHT22;44799;53.382;14.666;2022-08-19T11:22:40;24.20;99.90
59015;DHT22;44799;53.382;14.666;2022-08-19T11:25:07;23.80;99.90
59015;DHT22;44799;53.382;14.666;2022-08-19T11:27:33;24.40;99.90
59015;DHT22;44799;53.382;14.666;2022-08-19T11:30:03;24.50;99.90
59015;DHT22;44799;53.382;14.666;2022-08-19T11:32:29;24.70;99.90
59015;DHT22;44799;53.382;14.666;2022-08-19T11:34:54;25.80;99.90
59015;DHT22;44799;53.382;14.666;2022-08-19T11:37:20;25.00;99.90
59015;DHT22;44799;53.382;14.666;2022-08-19T11:39:46;25.20;99.90
59015;DHT22;44799;53.382;14.666;2022-08-19T11:42:12;25.30;99.90
59015;DHT22;44799;53.382;14.666;2022-08-19T11:44:56;25.50;99.90
59015;DHT22;44799;53.382;14.666;2022-08-19T11:47:22;25.60;99.90
59015;DHT22;44799;53.382;14.666;2022-08-19T11:49:49;25.70;99.90
59015;DHT22;44799;53.382;14.666;2022-08-19T11:52:15;25.80;99.90
59015;DHT22;44799;53.382;14.666;2022-08-19T11:54:42;25.90;99.90
59015;DHT22;44799;53.382;14.666;2022-08-19T11:57:08;26.00;99.90
59015;DHT22;44799;53.382;14.666;2022-08-19T11:59:33;26.20;99.90
59015;DHT22;44799;53.382;14.666;2022-08-19T12:01:59;26.30;99.90
59015;DHT22;44799;53.382;14.666;2022-08-19T12:04:25;26.40;99.90
59015;DHT22;44799;53.382;14.666;2022-08-19T12:06:51;26.50;99.90
59015;DHT22;44799;53.382;14.666;2022-08-19T12:09:17;26.50;99.90
59015;DHT22;44799;53.382;14.666;2022-08-19T12:11:43;26.60;99.90
59015;DHT22;44799;53.382;14.666;2022-08-19T12:14:10;26.80;99.90
59015;DHT22;44799;53.382;14.666;2022-08-19T12:16:37;26.80;99.90
59015;DHT22;44799;53.382;14.666;2022-08-19T12:19:04;26.30;99.90
59015;DHT22;44799;53.382;14.666;2022-08-19T12:21:33;27.00;99.90
59015;DHT22;44799;53.382;14.666;2022-08-19T12:24:00;27.00;99.90
59015;DHT22;44799;53.382;14.666;2022-08-19T12:26:28;27.10;99.90
59015;DHT22;44799;53.382;14.666;2022-08-19T12:28:54;27.20;99.90
59015;DHT22;44799;53.382;14.666;2022-08-19T12:31:20;27.40;99.90
59015;DHT22;44799;53.382;14.666;2022-08-19T12:33:46;27.50;99.90
59015;DHT22;44799;53.382;14.666;2022-08-19T12:36:15;27.60;99.90
59015;DHT22;44799;53.382;14.666;2022-08-19T12:38:42;27.40;99.90
59015;DHT22;44799;53.382;14.666;2022-08-19T12:41:11;27.40;99.90
59015;DHT22;44799;53.382;14.666;2022-08-19T12:43:37;27.30;99.90
59015;DHT22;44799;53.382;14.666;2022-08-19T12:46:04;27.20;99.90
59015;DHT22;44799;53.382;14.666;2022-08-19T12:48:32;27.10;99.90
59015;DHT22;44799;53.382;14.666;2022-08-19T12:50:57;27.00;99.90
59015;DHT22;44799;53.382;14.666;2022-08-19T12:53:24;26.90;99.90
59015;DHT22;44799;53.382;14.666;2022-08-19T12:55:57;26.80;99.90
59015;DHT22;44799;53.382;14.666;2022-08-19T12:58:25;26.50;99.90
59015;DHT22;44799;53.382;14.666;2022-08-19T13:00:51;26.60;99.90
59015;DHT22;44799;53.382;14.666;2022-08-19T13:03:17;26.60;99.90
59015;DHT22;44799;53.382;14.666;2022-08-19T13:05:43;26.70;99.90
59015;DHT22;44799;53.382;14.666;2022-08-19T13:08:09;26.70;99.90
59015;DHT22;44799;53.382;14.666;2022-08-19T13:10:36;26.80;99.90
59015;DHT22;44799;53.382;14.666;2022-08-19T13:13:05;26.80;99.90
59015;DHT22;44799;53.382;14.666;2022-08-19T13:15:34;26.90;99.90
59015;DHT22;44799;53.382;14.666;2022-08-19T13:18:00;26.90;99.90
59015;DHT22;44799;53.382;14.666;2022-08-19T13:20:26;26.90;99.90
59015;DHT22;44799;53.382;14.666;2022-08-19T13:22:53;27.00;99.70
59015;DHT22;44799;53.382;14.666;2022-08-19T13:25:20;27.10;99.90
59015;DHT22;44799;53.382;14.666;2022-08-19T13:27:47;27.20;99.80
59015;DHT22;44799;53.382;14.666;2022-08-19T13:30:14;27.20;99.90
59015;DHT22;44799;53.382;14.666;2022-08-19T13:32:59;27.40;99.90
59015;DHT22;44799;53.382;14.666;2022-08-19T13:35:40;27.70;99.80
59015;DHT22;44799;53.382;14.666;2022-08-19T13:38:05;28.00;99.80
59015;DHT22;44799;53.382;14.666;2022-08-19T13:40:32;28.10;99.50
59015;DHT22;44799;53.382;14.666;2022-08-19T13:43:03;28.20;99.30
59015;DHT22;44799;53.382;14.666;2022-08-19T13:45:30;28.30;98.80
59015;DHT22;44799;53.382;14.666;2022-08-19T13:47:59;28.20;98.70
59015;DHT22;44799;53.382;14.666;2022-08-19T13:50:29;28.10;98.50
59015;DHT22;44799;53.382;14.666;2022-08-19T13:52:57;28.20;98.50
59015;DHT22;44799;53.382;14.666;2022-08-19T13:55:24;28.30;97.70
59015;DHT22;44799;53.382;14.666;2022-08-19T13:57:51;28.40;97.90
59015;DHT22;44799;53.382;14.666;2022-08-19T14:00:19;28.50;97.90
59015;DHT22;44799;53.382;14.666;2022-08-19T14:02:46;28.70;97.30
59015;DHT22;44799;53.382;14.666;2022-08-19T14:05:14;29.00;97.10
59015;DHT22;44799;53.382;14.666;2022-08-19T14:07:41;29.20;96.60
59015;DHT22;44799;53.382;14.666;2022-08-19T14:10:09;29.30;96.60
59015;DHT22;44799;53.382;14.666;2022-08-19T14:12:36;29.40;96.40
59015;DHT22;44799;53.382;14.666;2022-08-19T14:15:04;29.50;96.40
59015;DHT22;44799;53.382;14.666;2022-08-19T14:17:30;29.60;96.30
59015;DHT22;44799;53.382;14.666;2022-08-19T14:20:00;29.70;96.00
59015;DHT22;44799;53.382;14.666;2022-08-19T14:22:32;29.60;95.40
59015;DHT22;44799;53.382;14.666;2022-08-19T14:24:58;29.50;95.50
59015;DHT22;44799;53.382;14.666;2022-08-19T14:27:23;29.40;95.60
59015;DHT22;44799;53.382;14.666;2022-08-19T14:29:51;29.40;95.90
59015;DHT22;44799;53.382;14.666;2022-08-19T14:32:17;29.40;96.00
59015;DHT22;44799;53.382;14.666;2022-08-19T14:34:43;29.40;95.70
59015;DHT22;44799;53.382;14.666;2022-08-19T14:37:12;29.50;95.50
59015;DHT22;44799;53.382;14.666;2022-08-19T14:39:43;29.40;95.00
59015;DHT22;44799;53.382;14.666;2022-08-19T14:42:11;29.10;95.00
59015;DHT22;44799;53.382;14.666;2022-08-19T14:44:37;28.80;95.30
59015;DHT22;44799;53.382;14.666;2022-08-19T14:47:04;28.40;95.40
59015;DHT22;44799;53.382;14.666;2022-08-19T14:49:32;28.30;96.00
59015;DHT22;44799;53.382;14.666;2022-08-19T14:51:58;28.00;96.60
59015;DHT22;44799;53.382;14.666;2022-08-19T14:54:24;27.90;96.90
59015;DHT22;44799;53.382;14.666;2022-08-19T14:56:49;27.90;97.20
59015;DHT22;44799;53.382;14.666;2022-08-19T14:59:15;28.00;96.90
59015;DHT22;44799;53.382;14.666;2022-08-19T15:01:41;27.90;97.00
59015;DHT22;44799;53.382;14.666;2022-08-19T15:04:07;27.90;97.00
59015;DHT22;44799;53.382;14.666;2022-08-19T15:06:33;27.70;97.10
59015;DHT22;44799;53.382;14.666;2022-08-19T15:08:59;27.50;97.30
59015;DHT22;44799;53.382;14.666;2022-08-19T15:11:27;27.40;97.00
59015;DHT22;44799;53.382;14.666;2022-08-19T15:13:55;28.10;97.50
59015;DHT22;44799;53.382;14.666;2022-08-19T15:16:22;27.30;97.30
59015;DHT22;44799;53.382;14.666;2022-08-19T15:18:54;27.40;97.40
59015;DHT22;44799;53.382;14.666;2022-08-19T15:21:21;27.40;97.40
59015;DHT22;44799;53.382;14.666;2022-08-19T15:23:48;27.30;97.60
59015;DHT22;44799;53.382;14.666;2022-08-19T15:26:16;27.20;98.00
59015;DHT22;44799;53.382;14.666;2022-08-19T15:28:43;27.30;97.70
59015;DHT22;44799;53.382;14.666;2022-08-19T15:31:09;27.30;97.80
59015;DHT22;44799;53.382;14.666;2022-08-19T15:33:36;27.50;97.80